createdAt,value
2022-08-10T00:01:51.846Z,101119.56
2022-08-10T00:04:22.402Z,101110.78
2022-08-10T00:06:53.301Z,101107.81
2022-08-10T00:09:23.835Z,101112.69
2022-08-10T00:11:52.598Z,101106.59
2022-08-10T00:14:21.132Z,101104.53
2022-08-10T00:16:49.671Z,101075.13
2022-08-10T00:19:18.458Z,101106.66
2022-08-10T00:21:48.377Z,101109.00
2022-08-10T00:24:17.100Z,101111.09
2022-08-10T00:27:52.895Z,101103.97
2022-08-10T00:29:35.482Z,101103.41
2022-08-10T00:32:05.170Z,101095.47
2022-08-10T00:34:34.719Z,101092.78
2022-08-10T00:37:03.339Z,101065.81
2022-08-10T00:39:36.038Z,101088.63
2022-08-10T00:42:08.454Z,101098.03
2022-08-10T00:44:38.664Z,101095.94
2022-08-10T00:47:07.261Z,101095.09
2022-08-10T00:49:38.957Z,101091.13
2022-08-10T00:52:08.487Z,101057.66
2022-08-10T00:54:38.477Z,101084.22
2022-08-10T00:57:17.587Z,101086.09
2022-08-10T00:59:59.021Z,101082.34
2022-08-10T01:02:33.383Z,101089.28
2022-08-10T01:05:05.780Z,101088.66
2022-08-10T01:08:04.567Z,101089.91
2022-08-10T01:10:42.794Z,101089.31
2022-08-10T01:13:22.326Z,101084.28
2022-08-10T01:15:57.793Z,101080.75
2022-08-10T01:18:37.829Z,101088.91
2022-08-10T01:21:30.482Z,101097.91
2022-08-10T01:24:10.235Z,101099.38
2022-08-10T01:27:01.182Z,101105.69
2022-08-10T01:29:56.539Z,101100.47
2022-08-10T01:32:34.294Z,101104.44
2022-08-10T01:35:11.524Z,101099.44
2022-08-10T01:37:51.903Z,101107.34
2022-08-10T01:40:26.645Z,101106.31
2022-08-10T01:43:08.057Z,101110.94
2022-08-10T01:45:45.794Z,101109.25
2022-08-10T01:48:32.741Z,101077.22
2022-08-10T01:51:14.681Z,101111.53
2022-08-10T01:53:47.239Z,101085.78
2022-08-10T01:56:17.903Z,101119.91
2022-08-10T01:58:49.764Z,101123.03
2022-08-10T02:01:23.419Z,101121.59
2022-08-10T02:04:03.531Z,101092.69
2022-08-10T02:06:37.558Z,101127.00
2022-08-10T02:09:08.402Z,101122.38
2022-08-10T02:12:06.435Z,101118.63
2022-08-10T02:14:32.925Z,100957.72
2022-08-10T02:17:05.987Z,101120.66
2022-08-10T02:19:36.821Z,101126.88
2022-08-10T02:22:36.594Z,101126.03
2022-08-10T02:24:58.901Z,100974.50
2022-08-10T02:27:28.969Z,101132.25
2022-08-10T02:29:59.225Z,101127.66
2022-08-10T02:32:38.318Z,101133.50
2022-08-10T02:35:18.621Z,101135.16
2022-08-10T02:37:54.165Z,101132.22
2022-08-10T02:45:02.315Z,101129.94
2022-08-10T02:45:25.439Z,101140.16
2022-08-10T02:46:18.244Z,101143.06
2022-08-10T02:48:58.209Z,101131.75
2022-08-10T02:52:07.928Z,101137.63
2022-08-10T02:54:24.452Z,101136.78
2022-08-10T02:56:57.576Z,101133.63
2022-08-10T02:59:40.047Z,101122.97
2022-08-10T03:02:13.269Z,101115.97
2022-08-10T03:04:55.007Z,101136.06
2022-08-10T03:07:43.087Z,101128.31
2022-08-10T03:10:16.437Z,101125.16
2022-08-10T03:12:47.117Z,101130.38
2022-08-10T03:15:17.252Z,101142.03
2022-08-10T03:17:58.314Z,101137.88
2022-08-10T03:20:38.084Z,101137.88
2022-08-10T03:23:10.961Z,101117.66
2022-08-10T03:25:40.107Z,101136.50
2022-08-10T03:28:09.143Z,101133.16
2022-08-10T03:30:38.121Z,101123.72
2022-08-10T03:33:08.844Z,101123.22
2022-08-10T03:35:38.715Z,101115.84
2022-08-10T03:38:07.204Z,101119.53
2022-08-10T03:40:46.227Z,101115.75
2022-08-10T03:43:18.525Z,101118.22
2022-08-10T03:45:54.870Z,101120.94
2022-08-10T03:48:44.568Z,101118.22
2022-08-10T03:51:17.220Z,101116.28
2022-08-10T03:54:05.626Z,101114.53
2022-08-10T03:56:38.206Z,101073.22
2022-08-10T03:59:08.206Z,101099.22
2022-08-10T04:02:52.879Z,101097.34
2022-08-10T04:04:29.716Z,101113.06
2022-08-10T04:07:00.637Z,101119.78
2022-08-10T04:09:54.764Z,101116.59
2022-08-10T04:12:19.148Z,101117.25
2022-08-10T04:14:50.771Z,101121.66
2022-08-10T04:18:01.358Z,101124.34
2022-08-10T04:20:19.442Z,101118.47
2022-08-10T04:22:53.522Z,101116.31
2022-08-10T04:25:23.855Z,101126.22
2022-08-10T04:27:53.505Z,101125.31
2022-08-10T04:30:22.330Z,101129.50
2022-08-10T04:32:54.983Z,101125.94
2022-08-10T04:35:25.128Z,101135.38
2022-08-10T04:37:57.099Z,101128.28
2022-08-10T04:40:30.491Z,101136.72
2022-08-10T04:43:05.797Z,101142.75
2022-08-10T04:45:49.682Z,101138.53
2022-08-10T04:48:42.497Z,101145.84
2022-08-10T04:51:16.007Z,101135.47
2022-08-10T04:54:03.175Z,101143.34
2022-08-10T04:56:36.863Z,101104.66
2022-08-10T04:59:06.317Z,101142.75
2022-08-10T05:02:22.015Z,101150.69
2022-08-10T05:04:37.746Z,101158.72
2022-08-10T05:07:15.815Z,101153.47
2022-08-10T05:10:02.312Z,101155.16
2022-08-10T05:12:36.515Z,101158.34
2022-08-10T05:15:08.215Z,101168.09
2022-08-10T05:17:36.903Z,101138.53
2022-08-10T05:20:07.193Z,101175.63
2022-08-10T05:22:37.850Z,101174.13
2022-08-10T05:25:10.859Z,101163.75
2022-08-10T05:27:39.825Z,101165.03
2022-08-10T05:30:10.325Z,101176.13
2022-08-10T05:32:56.869Z,101184.44
2022-08-10T05:35:26.721Z,101182.00
2022-08-10T05:38:10.473Z,101183.78
2022-08-10T05:40:47.433Z,101178.69
2022-08-10T05:43:19.289Z,101182.03
2022-08-10T05:46:17.954Z,101141.63
2022-08-10T05:48:53.818Z,101179.84
2022-08-10T05:51:27.495Z,101173.47
2022-08-10T05:54:01.257Z,101185.97
2022-08-10T05:56:56.139Z,101185.31
2022-08-10T06:00:33.233Z,101183.13
2022-08-10T06:02:32.984Z,101176.75
2022-08-10T06:05:07.219Z,101183.09
2022-08-10T06:07:38.488Z,101145.69
2022-08-10T06:10:10.566Z,101185.09
2022-08-10T06:12:55.268Z,101190.56
2022-08-10T06:15:43.349Z,101192.53
2022-08-10T06:18:15.697Z,101189.00
2022-08-10T06:20:44.668Z,101188.41
2022-08-10T06:23:14.375Z,101172.63
2022-08-10T06:26:09.916Z,101186.63
2022-08-10T06:28:35.404Z,101154.34
2022-08-10T06:31:05.520Z,101192.50
2022-08-10T06:33:36.787Z,101191.31
2022-08-10T06:36:07.562Z,101169.94
2022-08-10T06:38:39.501Z,101185.38
2022-08-10T06:41:19.448Z,101188.41
2022-08-10T06:43:58.021Z,101184.78
2022-08-10T06:46:29.189Z,101184.06
2022-08-10T06:49:02.709Z,101182.75
2022-08-10T06:51:33.457Z,101183.56
2022-08-10T06:54:05.792Z,101186.84
2022-08-10T06:56:43.696Z,101181.16
2022-08-10T06:59:27.278Z,101181.44
2022-08-10T07:02:00.792Z,101179.56
2022-08-10T07:04:35.299Z,101181.16
2022-08-10T07:07:05.601Z,101171.53
2022-08-10T07:09:37.795Z,101170.06
2022-08-10T07:12:09.603Z,101173.97
2022-08-10T07:14:46.813Z,101181.19
2022-08-10T07:17:18.484Z,101174.81
2022-08-10T07:19:49.473Z,101151.31
2022-08-10T07:23:27.284Z,101174.66
2022-08-10T07:25:12.042Z,101169.91
2022-08-10T07:28:00.419Z,101177.31
2022-08-10T07:30:33.721Z,101171.06
2022-08-10T07:33:02.721Z,101180.91
2022-08-10T07:35:41.776Z,101173.88
2022-08-10T07:38:19.052Z,101180.69
2022-08-10T07:40:49.862Z,101180.94
2022-08-10T07:43:20.094Z,101180.53
2022-08-10T07:45:50.888Z,101177.06
2022-08-10T07:48:23.589Z,101169.44
2022-08-10T07:50:57.977Z,101169.91
2022-08-10T07:53:29.140Z,101170.66
2022-08-10T07:56:01.882Z,101170.66
2022-08-10T07:58:46.440Z,101163.59
2022-08-10T08:01:25.046Z,101134.38
2022-08-10T08:04:10.706Z,101167.53
2022-08-10T08:06:42.019Z,101167.47
2022-08-10T08:09:10.788Z,101170.91
2022-08-10T08:11:40.575Z,101168.25
2022-08-10T08:14:10.469Z,101173.13
2022-08-10T08:16:43.572Z,101165.75
2022-08-10T08:19:37.130Z,101172.97
2022-08-10T08:24:07.809Z,101175.78
2022-08-10T08:24:52.687Z,101147.66
2022-08-10T08:27:22.144Z,101175.28
2022-08-10T08:29:52.987Z,101151.00
2022-08-10T08:32:24.365Z,101178.31
2022-08-10T08:34:57.089Z,101179.41
2022-08-10T08:38:31.941Z,101179.97
2022-08-10T08:40:23.126Z,101172.34
2022-08-10T08:43:17.991Z,101183.38
2022-08-10T08:46:11.198Z,101181.38
2022-08-10T08:48:55.993Z,101182.22
2022-08-10T08:52:07.749Z,101179.41
2022-08-10T08:54:39.031Z,101187.47
2022-08-10T08:57:23.016Z,101184.66
2022-08-10T09:00:10.586Z,101186.63
2022-08-10T09:03:11.358Z,101181.06
2022-08-10T09:05:58.835Z,101179.69
2022-08-10T09:09:04.804Z,101175.13
2022-08-10T09:11:55.615Z,101177.78
2022-08-10T09:14:31.928Z,101179.88
2022-08-10T09:17:10.835Z,101162.66
2022-08-10T09:19:47.783Z,101154.84
2022-08-10T09:22:27.215Z,101163.00
2022-08-10T09:25:00.310Z,101155.13
2022-08-10T09:27:43.358Z,101161.06
2022-08-10T09:30:16.379Z,101158.19
2022-08-10T09:36:14.152Z,101147.75
2022-08-10T09:36:26.785Z,101151.25
2022-08-10T09:38:53.386Z,101154.47
2022-08-10T09:41:34.234Z,101150.88
2022-08-10T09:44:13.050Z,101142.91
2022-08-10T09:46:59.998Z,101152.75
2022-08-10T09:49:54.390Z,101148.31
2022-08-10T09:52:33.233Z,101149.41
2022-08-10T09:55:12.700Z,101155.00
2022-08-10T09:57:56.792Z,101143.34
2022-08-10T10:00:31.841Z,101142.75
2022-08-10T10:03:10.474Z,101138.72
2022-08-10T10:05:52.393Z,101118.56
2022-08-10T10:08:31.913Z,101145.72
2022-08-10T10:11:09.289Z,101146.78
2022-08-10T10:14:02.505Z,101144.31
2022-08-10T10:16:47.345Z,101148.03
2022-08-10T10:19:36.165Z,101149.94
2022-08-10T10:22:26.461Z,101154.72
2022-08-10T10:25:20.991Z,101145.66
2022-08-10T10:27:59.499Z,101049.91
2022-08-10T10:30:37.859Z,101140.06
2022-08-10T10:33:15.238Z,101142.88
2022-08-10T10:35:52.318Z,101142.72
2022-08-10T10:38:24.492Z,101127.47
2022-08-10T10:41:01.832Z,101144.38
2022-08-10T10:43:42.362Z,101147.47
2022-08-10T10:46:25.826Z,101141.47
2022-08-10T10:49:04.978Z,101138.44
2022-08-10T10:51:39.818Z,101111.38
2022-08-10T10:54:10.997Z,101140.97
2022-08-10T10:56:51.378Z,101133.63
2022-08-10T10:59:55.958Z,101092.50
2022-08-10T11:02:36.687Z,101132.13
2022-08-10T11:05:16.487Z,101134.06
2022-08-10T11:07:53.177Z,101129.56
2022-08-10T11:10:32.926Z,101122.78
2022-08-10T11:14:24.852Z,101124.44
2022-08-10T11:16:14.592Z,101114.81
2022-08-10T11:18:58.072Z,101116.38
2022-08-10T11:21:44.521Z,101117.34
2022-08-10T11:24:47.491Z,101115.38
2022-08-10T11:27:22.066Z,101118.88
2022-08-10T11:30:00.444Z,101112.47
2022-08-10T11:32:36.897Z,101117.56
2022-08-10T11:35:13.594Z,101115.91
2022-08-10T11:38:31.230Z,101109.66
2022-08-10T11:40:45.726Z,101104.84
2022-08-10T11:43:22.081Z,101103.94
2022-08-10T11:45:55.952Z,101107.69
2022-08-10T11:48:53.531Z,101109.97
2022-08-10T11:51:31.607Z,101102.75
2022-08-10T11:54:06.573Z,101102.13
2022-08-10T11:56:50.909Z,101096.53
2022-08-10T11:59:40.031Z,101091.63
2022-08-10T12:02:10.605Z,101092.44
2022-08-10T12:04:46.699Z,101094.38
2022-08-10T12:10:02.210Z,101096.03
2022-08-10T12:10:13.610Z,101092.00
2022-08-10T12:12:48.426Z,101094.03
2022-08-10T12:15:25.493Z,101091.63
2022-08-10T12:17:57.078Z,101094.41
2022-08-10T12:20:31.054Z,101091.63
2022-08-10T12:23:03.090Z,101087.69
2022-08-10T12:25:57.025Z,101056.28
2022-08-10T12:28:49.158Z,101085.47
2022-08-10T12:31:24.611Z,101079.88
2022-08-10T12:34:05.402Z,101062.22
2022-08-10T12:36:41.508Z,101088.03
2022-08-10T12:39:16.991Z,101086.06
2022-08-10T12:41:51.847Z,101089.88
2022-08-10T12:44:41.495Z,101078.69
2022-08-10T12:47:20.143Z,101074.88
2022-08-10T12:50:29.391Z,101074.59
2022-08-10T12:53:06.626Z,101072.25
2022-08-10T12:55:39.581Z,101082.41
2022-08-10T12:58:59.102Z,101080.31
2022-08-10T13:01:16.281Z,101069.97
2022-08-10T13:04:23.370Z,101070.56
2022-08-10T13:06:41.812Z,101053.88
2022-08-10T13:09:13.112Z,101068.44
2022-08-10T13:12:35.780Z,101071.94
2022-08-10T13:14:38.542Z,101056.59
2022-08-10T13:17:09.383Z,101060.78
2022-08-10T13:19:56.140Z,101058.75
2022-08-10T13:22:30.290Z,101065.16
2022-08-10T13:25:04.343Z,101065.69
2022-08-10T13:28:03.255Z,101066.56
2022-08-10T13:30:35.597Z,101056.88
2022-08-10T13:33:08.677Z,101061.00
2022-08-10T13:35:37.931Z,101062.06
2022-08-10T13:38:08.308Z,101052.22
2022-08-10T13:40:40.087Z,101033.28
2022-08-10T13:43:10.175Z,101059.59
2022-08-10T13:45:47.903Z,101052.03
2022-08-10T13:48:21.767Z,101055.34
2022-08-10T13:50:53.554Z,101023.03
2022-08-10T13:53:23.580Z,101043.50
2022-08-10T13:55:56.740Z,101039.75
2022-08-10T13:58:30.426Z,101032.69
2022-08-10T14:01:01.309Z,101030.72
2022-08-10T14:03:35.373Z,101029.25
2022-08-10T14:06:07.003Z,101026.78
2022-08-10T14:08:36.898Z,101028.25
2022-08-10T14:11:12.811Z,101026.78
2022-08-10T14:13:46.732Z,101027.75
2022-08-10T14:16:15.478Z,101022.81
2022-08-10T14:18:45.942Z,101022.81
2022-08-10T14:21:15.178Z,101021.91
2022-08-10T14:23:52.972Z,101017.34
2022-08-10T14:26:26.230Z,101017.34
2022-08-10T14:28:57.498Z,101017.66
2022-08-10T14:31:33.610Z,100876.50
2022-08-10T14:34:06.803Z,100997.38
2022-08-10T14:36:43.448Z,100993.00
2022-08-10T14:39:16.367Z,100990.63
2022-08-10T14:42:04.553Z,100988.81
2022-08-10T14:44:46.854Z,100983.56
2022-08-10T14:47:52.232Z,100978.00
2022-08-10T14:50:07.697Z,100983.06
2022-08-10T14:52:43.911Z,100974.50
2022-08-10T14:55:19.510Z,100977.91
2022-08-10T14:58:17.276Z,100975.38
2022-08-10T15:00:43.031Z,100970.13
2022-08-10T15:04:00.931Z,100973.66
2022-08-10T15:06:17.251Z,100969.13
2022-08-10T15:08:48.049Z,100969.53
2022-08-10T15:12:13.389Z,100965.31
2022-08-10T15:14:41.613Z,100965.22
2022-08-10T15:17:03.247Z,100965.31
2022-08-10T15:20:02.422Z,100961.09
2022-08-10T15:22:47.094Z,100949.97
2022-08-10T15:25:25.221Z,100955.63
2022-08-10T15:27:58.131Z,100925.41
2022-08-10T15:30:42.920Z,100951.38
2022-08-10T15:34:02.206Z,100934.25
2022-08-10T15:36:41.928Z,100955.56
2022-08-10T15:40:22.305Z,100961.22
2022-08-10T15:42:08.581Z,100962.88
2022-08-10T15:44:43.169Z,100952.59
2022-08-10T15:47:20.998Z,100961.03
2022-08-10T15:49:56.275Z,100962.03
2022-08-10T15:52:38.774Z,100961.06
2022-08-10T15:55:43.257Z,100929.06
2022-08-10T15:58:14.345Z,100936.88
2022-08-10T16:00:50.918Z,100947.31
2022-08-10T16:03:26.681Z,100947.94
2022-08-10T16:06:01.989Z,100947.41
2022-08-10T16:08:56.125Z,100949.84
2022-08-10T16:11:37.466Z,100958.09
2022-08-10T16:14:17.462Z,100962.00
2022-08-10T16:16:51.281Z,100949.47
2022-08-10T16:19:24.896Z,100945.88
2022-08-10T16:22:00.195Z,100949.84
2022-08-10T16:24:33.866Z,100950.50
2022-08-10T16:27:06.628Z,100954.47
2022-08-10T16:29:56.192Z,100951.53
2022-08-10T16:32:26.667Z,100936.38
2022-08-10T16:34:57.748Z,100953.78
2022-08-10T16:37:58.911Z,100961.81
2022-08-10T16:40:24.098Z,100953.25
2022-08-10T16:42:54.560Z,100955.00
2022-08-10T16:45:30.311Z,100943.72
2022-08-10T16:47:59.507Z,100954.88
2022-08-10T16:50:32.251Z,100944.66
2022-08-10T16:53:03.599Z,100941.13
2022-08-10T16:55:49.478Z,100943.41
2022-08-10T16:58:27.470Z,100941.53
2022-08-10T17:01:02.129Z,100933.03
2022-08-10T17:04:07.835Z,100872.28
2022-08-10T17:06:27.947Z,100942.63
2022-08-10T17:08:59.649Z,100938.25
2022-08-10T17:11:31.696Z,100932.78
2022-08-10T17:14:03.266Z,100937.31
2022-08-10T17:16:36.335Z,100929.03
2022-08-10T17:19:08.583Z,100934.88
2022-08-10T17:21:51.916Z,100936.00
2022-08-10T17:24:25.243Z,100931.63
2022-08-10T17:26:57.693Z,100943.06
2022-08-10T17:29:57.315Z,100946.41
2022-08-10T17:32:25.696Z,100942.00
2022-08-10T17:34:57.930Z,100935.97
2022-08-10T17:37:37.620Z,100945.44
2022-08-10T17:40:10.047Z,100941.31
2022-08-10T17:42:41.021Z,100943.25
2022-08-10T17:45:20.900Z,100922.25
2022-08-10T17:48:09.460Z,100940.75
2022-08-10T17:50:39.950Z,100940.25
2022-08-10T17:53:16.757Z,100941.63
2022-08-10T17:55:47.364Z,100945.00
2022-08-10T17:58:18.738Z,100909.72
2022-08-10T18:00:50.088Z,100946.16
2022-08-10T18:03:25.641Z,100945.66
2022-08-10T18:05:56.385Z,100952.03
2022-08-10T18:08:30.790Z,100916.16
2022-08-10T18:11:00.206Z,100946.78
2022-08-10T18:13:56.022Z,100950.44
2022-08-10T18:16:26.071Z,100953.47
2022-08-10T18:19:00.570Z,100951.28
2022-08-10T18:21:32.246Z,100957.34
2022-08-10T18:24:07.569Z,100956.25
2022-08-10T18:26:38.252Z,100929.75
2022-08-10T18:29:12.758Z,100959.28
2022-08-10T18:31:48.984Z,100959.56
2022-08-10T18:34:20.948Z,100888.28
2022-08-10T18:36:51.014Z,100958.41
2022-08-10T18:39:27.183Z,100966.13
2022-08-10T18:42:04.665Z,100975.22
2022-08-10T18:44:39.077Z,100972.72
2022-08-10T18:47:13.953Z,100972.41
2022-08-10T18:49:55.529Z,100972.09
2022-08-10T18:52:28.177Z,100975.41
2022-08-10T18:55:14.254Z,100978.34
2022-08-10T18:58:12.572Z,100981.88
2022-08-10T19:00:54.779Z,100988.22
2022-08-10T19:03:35.939Z,100987.88
2022-08-10T19:06:23.775Z,100992.78
2022-08-10T19:09:47.470Z,100996.59
2022-08-10T19:12:31.214Z,101001.16
2022-08-10T19:15:10.009Z,100998.63
2022-08-10T19:18:03.157Z,101003.84
2022-08-10T19:20:39.127Z,101006.84
2022-08-10T19:23:18.363Z,101010.34
2022-08-10T19:26:42.866Z,101011.06
2022-08-10T19:28:55.544Z,101015.69
2022-08-10T19:31:42.002Z,101014.72
2022-08-10T19:34:34.931Z,101028.38
2022-08-10T19:37:15.406Z,101028.28
2022-08-10T19:40:00.459Z,101025.72
2022-08-10T19:42:36.371Z,101035.06
2022-08-10T19:45:56.153Z,101032.25
2022-08-10T19:48:16.621Z,101036.31
2022-08-10T19:50:48.772Z,101038.44
2022-08-10T19:53:26.147Z,100889.47
2022-08-10T19:56:18.549Z,101041.44
2022-08-10T19:58:57.571Z,101037.81
2022-08-10T20:01:54.393Z,101039.41
2022-08-10T20:04:28.822Z,101049.75
2022-08-10T20:07:10.083Z,101017.53
2022-08-10T20:09:47.351Z,101050.66
2022-08-10T20:12:24.856Z,101061.81
2022-08-10T20:15:03.127Z,101062.81
2022-08-10T20:17:45.019Z,101059.13
2022-08-10T20:20:30.676Z,101064.00
2022-08-10T20:23:09.659Z,101065.81
2022-08-10T20:25:39.770Z,101075.06
2022-08-10T20:28:19.427Z,101072.81
2022-08-10T20:30:53.286Z,101072.47
2022-08-10T20:33:29.344Z,101064.38
2022-08-10T20:36:04.450Z,100944.13
2022-08-10T20:38:39.750Z,101068.81
2022-08-10T20:41:17.628Z,101061.19
2022-08-10T20:44:12.753Z,101063.81
2022-08-10T20:46:46.958Z,101064.31
2022-08-10T20:49:30.338Z,101026.81
2022-08-10T20:52:03.333Z,101046.13
2022-08-10T20:54:36.060Z,101070.44
2022-08-10T20:57:55.281Z,101067.00
2022-08-10T21:00:13.911Z,101071.31
2022-08-10T21:02:58.662Z,101070.00
2022-08-10T21:05:52.941Z,101070.38
2022-08-10T21:08:30.183Z,101072.13
2022-08-10T21:11:08.691Z,101066.06
2022-08-10T21:14:03.919Z,101040.75
2022-08-10T21:16:47.337Z,101061.13
2022-08-10T21:19:52.369Z,101061.00
2022-08-10T21:22:29.409Z,101034.50
2022-08-10T21:25:02.792Z,101065.19
2022-08-10T21:28:03.487Z,101060.72
2022-08-10T21:31:00.250Z,101078.84
2022-08-10T21:33:36.518Z,101073.38
2022-08-10T21:36:10.616Z,101050.50
2022-08-10T21:38:48.497Z,101080.00
2022-08-10T21:41:57.677Z,101075.38
2022-08-10T21:45:08.009Z,101073.00
2022-08-10T21:48:17.284Z,101066.69
2022-08-10T21:51:16.266Z,101071.91
2022-08-10T21:54:25.950Z,101071.44
2022-08-10T21:57:19.597Z,101078.06
2022-08-10T22:03:17.384Z,101068.34
2022-08-10T22:06:09.595Z,101070.34
2022-08-10T22:08:59.758Z,101071.03
2022-08-10T22:11:55.530Z,101070.09
2022-08-10T22:14:48.027Z,101068.66
2022-08-10T22:18:00.768Z,101077.91
2022-08-10T22:20:46.350Z,101061.66
2022-08-10T22:24:16.504Z,101062.97
2022-08-10T22:27:46.352Z,101067.06
2022-08-10T22:30:27.118Z,101081.25
2022-08-10T22:31:28.295Z,101067.91
2022-08-10T22:33:37.284Z,101082.81
2022-08-10T22:36:53.554Z,101081.50
2022-08-10T22:40:10.119Z,101000.13
2022-08-10T22:43:10.316Z,101089.16
2022-08-10T22:46:05.043Z,101090.59
2022-08-10T22:48:59.148Z,101088.69
2022-08-10T22:51:35.838Z,101092.13
2022-08-10T22:54:30.473Z,101089.53
2022-08-10T22:57:18.930Z,101085.72
2022-08-10T22:59:50.426Z,101089.06
2022-08-10T23:02:30.581Z,101094.91
2022-08-10T23:05:06.860Z,101101.56
2022-08-10T23:07:38.234Z,101098.13
2022-08-10T23:10:10.305Z,101097.19
2022-08-10T23:12:43.859Z,100957.81
2022-08-10T23:15:38.766Z,101094.91
2022-08-10T23:18:28.088Z,101095.88
2022-08-10T23:20:58.361Z,101099.00
2022-08-10T23:23:30.147Z,101100.66
2022-08-10T23:26:01.301Z,101094.94
2022-08-10T23:28:38.769Z,101095.91
2022-08-10T23:32:01.124Z,101097.56
2022-08-10T23:34:21.878Z,101098.13
2022-08-10T23:36:52.030Z,101101.84
2022-08-10T23:39:26.624Z,101098.72
2022-08-10T23:42:03.269Z,101094.91
2022-08-10T23:44:38.440Z,101065.41
2022-08-10T23:47:09.957Z,101090.16
2022-08-10T23:49:39.808Z,101090.03
2022-08-10T23:52:13.473Z,101092.28
2022-08-10T23:54:48.027Z,101058.69
2022-08-10T23:57:21.221Z,101091.09
2022-08-10T23:59:55.753Z,100922.16
